createdAt,value
2024-05-09T00:03:52.595Z,65
2024-05-09T00:13:52.781Z,67
2024-05-09T00:23:52.644Z,67
2024-05-09T00:33:52.695Z,67
2024-05-09T00:43:52.745Z,67
2024-05-09T00:53:52.713Z,66
2024-05-09T01:03:52.732Z,65
2024-05-09T01:13:52.581Z,64
2024-05-09T01:23:52.768Z,63
2024-05-09T01:33:52.598Z,65
2024-05-09T01:43:52.604Z,66
2024-05-09T01:53:52.572Z,67
2024-05-09T02:03:52.834Z,64
2024-05-09T02:13:52.575Z,65
2024-05-09T02:23:52.579Z,64
2024-05-09T02:33:52.843Z,62
2024-05-09T02:43:52.687Z,65
2024-05-09T02:53:52.502Z,64
2024-05-09T03:03:52.715Z,65
2024-05-09T03:13:52.580Z,64
2024-05-09T03:23:52.703Z,65
2024-05-09T03:33:52.650Z,62
2024-05-09T03:43:52.722Z,62
2024-05-09T03:53:52.495Z,61
2024-05-09T04:03:52.625Z,61
2024-05-09T04:13:52.578Z,62
2024-05-09T04:23:52.453Z,63
2024-05-09T04:33:52.550Z,55
2024-05-09T04:43:52.511Z,52
2024-05-09T04:53:52.670Z,47
2024-05-09T05:03:53.004Z,47
2024-05-09T05:13:52.535Z,45
2024-05-09T05:23:52.500Z,40
2024-05-09T05:33:52.482Z,33
2024-05-09T05:43:52.493Z,32
2024-05-09T05:53:52.554Z,29
2024-05-09T06:03:52.566Z,25
2024-05-09T06:13:52.430Z,25
2024-05-09T06:23:52.505Z,33
2024-05-09T06:33:52.569Z,56
2024-05-09T06:43:52.575Z,60
2024-05-09T06:53:52.496Z,73
2024-05-09T07:03:52.295Z,69
2024-05-09T07:13:52.491Z,81
2024-05-09T07:23:52.350Z,80
2024-05-09T07:33:52.528Z,82
2024-05-09T07:43:52.213Z,84
2024-05-09T07:53:53.943Z,85
2024-05-09T08:03:52.284Z,86
2024-05-09T08:13:52.203Z,90
2024-05-09T08:23:52.335Z,92
2024-05-09T08:33:52.507Z,88
2024-05-09T08:43:52.388Z,93
2024-05-09T08:53:52.351Z,95
2024-05-09T09:03:52.481Z,98
2024-05-09T09:13:52.395Z,98
2024-05-09T09:33:52.520Z,98
2024-05-09T09:43:52.286Z,91
2024-05-09T09:53:52.234Z,96
2024-05-09T10:03:52.219Z,95
2024-05-09T10:13:52.327Z,77
2024-05-09T10:23:52.342Z,87
2024-05-09T10:33:52.719Z,87
2024-05-09T10:43:52.272Z,85
2024-05-09T10:53:52.181Z,68
2024-05-09T11:03:52.185Z,68
2024-05-09T11:13:52.152Z,60
2024-05-09T11:23:52.281Z,52
2024-05-09T11:33:52.161Z,52
2024-05-09T11:43:52.102Z,55
2024-05-09T11:53:52.123Z,52
2024-05-09T12:03:52.323Z,49
2024-05-09T12:13:52.249Z,48
2024-05-09T12:23:52.068Z,47
2024-05-09T12:33:52.211Z,56
2024-05-09T12:43:52.172Z,52
2024-05-09T12:53:52.057Z,58
2024-05-09T13:03:52.242Z,49
2024-05-09T13:13:52.091Z,51
2024-05-09T13:23:52.042Z,48
2024-05-09T13:33:52.246Z,51
2024-05-09T13:43:52.013Z,49
2024-05-09T13:53:51.998Z,51
2024-05-09T14:03:52.076Z,46
2024-05-09T14:13:51.988Z,46
2024-05-09T14:23:51.956Z,49
2024-05-09T14:33:52.187Z,48
2024-05-09T14:43:51.912Z,53
2024-05-09T14:53:51.923Z,53
2024-05-09T15:03:52.139Z,50
2024-05-09T15:13:51.895Z,46
2024-05-09T15:23:51.930Z,49
2024-05-09T15:33:51.901Z,46
2024-05-09T15:43:51.766Z,45
2024-05-09T15:53:51.850Z,50
2024-05-09T16:03:52.186Z,47
2024-05-09T16:13:51.777Z,48
2024-05-09T16:23:51.779Z,45
2024-05-09T16:33:51.896Z,45
2024-05-09T16:43:51.848Z,45
2024-05-09T16:53:51.824Z,48
2024-05-09T17:03:51.896Z,51
2024-05-09T17:13:51.743Z,55
2024-05-09T17:23:51.826Z,60
2024-05-09T17:33:52.117Z,63
2024-05-09T17:43:51.681Z,67
2024-05-09T17:53:51.718Z,70
2024-05-09T18:03:51.866Z,74
2024-05-09T18:13:51.693Z,80
2024-05-09T18:23:51.718Z,94
2024-05-09T18:33:52.051Z,99
2024-05-09T18:43:51.750Z,95
2024-05-09T19:03:51.762Z,90
2024-05-09T19:13:51.805Z,84
2024-05-09T19:23:52.220Z,80
2024-05-09T19:33:51.889Z,76
2024-05-09T19:43:51.653Z,77
2024-05-09T19:53:51.648Z,72
2024-05-09T20:03:51.730Z,68
2024-05-09T20:13:51.694Z,62
2024-05-09T20:23:51.575Z,57
2024-05-09T20:33:51.664Z,51
2024-05-09T20:43:51.591Z,48
2024-05-09T20:53:51.669Z,47
2024-05-09T21:03:51.711Z,48
2024-05-09T21:13:51.586Z,47
2024-05-09T21:23:51.585Z,46
2024-05-09T21:33:51.696Z,45
2024-05-09T21:43:51.587Z,43
2024-05-09T21:53:51.517Z,42
2024-05-09T22:03:51.759Z,42
2024-05-09T22:13:51.596Z,42
2024-05-09T22:23:51.579Z,41
2024-05-09T22:33:51.614Z,39
2024-05-09T22:43:51.608Z,39
2024-05-09T22:53:51.517Z,39
2024-05-09T23:03:51.743Z,38
2024-05-09T23:13:51.564Z,39
2024-05-09T23:23:51.464Z,39
2024-05-09T23:33:51.767Z,39
2024-05-09T23:43:51.615Z,39
2024-05-09T23:53:51.502Z,40
